sensor_id;sensor_type;location;lat;lon;timestamp;P1;durP1;ratioP1;P2;durP2;ratioP2
34541;SDS011;20784;51.332;12.410;2023-04-15T00:02:17;6.63;;;5.82;;
34541;SDS011;20784;51.332;12.410;2023-04-15T00:04:46;7.03;;;5.80;;
34541;SDS011;20784;51.332;12.410;2023-04-15T00:07:12;6.60;;;5.35;;
34541;SDS011;20784;51.332;12.410;2023-04-15T00:09:40;6.20;;;5.35;;
34541;SDS011;20784;51.332;12.410;2023-04-15T00:12:11;6.80;;;5.90;;
34541;SDS011;20784;51.332;12.410;2023-04-15T00:14:41;8.48;;;5.97;;
34541;SDS011;20784;51.332;12.410;2023-04-15T00:17:09;7.32;;;6.30;;
34541;SDS011;20784;51.332;12.410;2023-04-15T00:19:42;7.57;;;6.32;;
34541;SDS011;20784;51.332;12.410;2023-04-15T00:22:11;7.00;;;6.30;;
34541;SDS011;20784;51.332;12.410;2023-04-15T00:24:39;7.65;;;6.35;;
34541;SDS011;20784;51.332;12.410;2023-04-15T00:27:07;8.88;;;7.60;;
34541;SDS011;20784;51.332;12.410;2023-04-15T00:29:38;9.32;;;8.32;;
34541;SDS011;20784;51.332;12.410;2023-04-15T00:32:07;10.43;;;8.15;;
34541;SDS011;20784;51.332;12.410;2023-04-15T00:34:33;11.48;;;8.70;;
34541;SDS011;20784;51.332;12.410;2023-04-15T00:37:06;9.55;;;8.45;;
34541;SDS011;20784;51.332;12.410;2023-04-15T00:39:33;9.07;;;8.15;;
34541;SDS011;20784;51.332;12.410;2023-04-15T00:42:03;11.13;;;8.10;;
34541;SDS011;20784;51.332;12.410;2023-04-15T00:44:38;8.93;;;7.93;;
34541;SDS011;20784;51.332;12.410;2023-04-15T00:47:04;9.30;;;8.30;;
34541;SDS011;20784;51.332;12.410;2023-04-15T00:49:30;9.63;;;8.63;;
34541;SDS011;20784;51.332;12.410;2023-04-15T00:51:56;9.13;;;7.82;;
34541;SDS011;20784;51.332;12.410;2023-04-15T00:54:21;9.07;;;7.55;;
34541;SDS011;20784;51.332;12.410;2023-04-15T00:56:47;7.82;;;7.00;;
34541;SDS011;20784;51.332;12.410;2023-04-15T00:59:16;8.20;;;7.22;;
34541;SDS011;20784;51.332;12.410;2023-04-15T01:01:42;7.05;;;6.00;;
34541;SDS011;20784;51.332;12.410;2023-04-15T01:04:09;7.60;;;6.50;;
34541;SDS011;20784;51.332;12.410;2023-04-15T01:06:36;9.60;;;6.88;;
34541;SDS011;20784;51.332;12.410;2023-04-15T01:09:02;6.72;;;5.65;;
34541;SDS011;20784;51.332;12.410;2023-04-15T01:11:27;8.70;;;6.43;;
34541;SDS011;20784;51.332;12.410;2023-04-15T01:13:54;7.30;;;6.40;;
34541;SDS011;20784;51.332;12.410;2023-04-15T01:16:22;7.15;;;5.72;;
34541;SDS011;20784;51.332;12.410;2023-04-15T01:18:51;8.20;;;6.63;;
34541;SDS011;20784;51.332;12.410;2023-04-15T01:21:17;6.72;;;5.85;;
34541;SDS011;20784;51.332;12.410;2023-04-15T01:23:49;6.47;;;5.82;;
34541;SDS011;20784;51.332;12.410;2023-04-15T01:26:17;6.68;;;5.70;;
34541;SDS011;20784;51.332;12.410;2023-04-15T01:28:47;6.57;;;5.88;;
34541;SDS011;20784;51.332;12.410;2023-04-15T01:31:13;6.78;;;6.05;;
34541;SDS011;20784;51.332;12.410;2023-04-15T01:33:40;7.47;;;6.40;;
34541;SDS011;20784;51.332;12.410;2023-04-15T01:36:07;7.28;;;6.00;;
34541;SDS011;20784;51.332;12.410;2023-04-15T01:38:36;7.22;;;6.20;;
34541;SDS011;20784;51.332;12.410;2023-04-15T01:41:03;8.02;;;5.70;;
34541;SDS011;20784;51.332;12.410;2023-04-15T01:43:30;6.90;;;5.88;;
34541;SDS011;20784;51.332;12.410;2023-04-15T01:45:56;7.13;;;6.35;;
34541;SDS011;20784;51.332;12.410;2023-04-15T01:48:25;7.72;;;6.10;;
34541;SDS011;20784;51.332;12.410;2023-04-15T01:50:53;10.60;;;6.22;;
34541;SDS011;20784;51.332;12.410;2023-04-15T01:53:22;8.13;;;6.33;;
34541;SDS011;20784;51.332;12.410;2023-04-15T01:55:53;7.00;;;6.25;;
34541;SDS011;20784;51.332;12.410;2023-04-15T01:58:22;8.98;;;6.63;;
34541;SDS011;20784;51.332;12.410;2023-04-15T02:00:51;7.53;;;6.20;;
34541;SDS011;20784;51.332;12.410;2023-04-15T02:03:16;7.43;;;5.95;;
34541;SDS011;20784;51.332;12.410;2023-04-15T02:05:45;6.97;;;6.07;;
34541;SDS011;20784;51.332;12.410;2023-04-15T02:08:11;7.30;;;6.30;;
34541;SDS011;20784;51.332;12.410;2023-04-15T02:10:37;7.93;;;6.57;;
34541;SDS011;20784;51.332;12.410;2023-04-15T02:13:03;6.60;;;5.90;;
34541;SDS011;20784;51.332;12.410;2023-04-15T02:15:32;8.27;;;6.45;;
34541;SDS011;20784;51.332;12.410;2023-04-15T02:17:58;7.47;;;6.28;;
34541;SDS011;20784;51.332;12.410;2023-04-15T02:20:27;7.30;;;6.25;;
34541;SDS011;20784;51.332;12.410;2023-04-15T02:22:59;6.93;;;6.22;;
34541;SDS011;20784;51.332;12.410;2023-04-15T02:25:25;7.60;;;6.38;;
34541;SDS011;20784;51.332;12.410;2023-04-15T02:27:51;6.63;;;5.80;;
34541;SDS011;20784;51.332;12.410;2023-04-15T02:30:17;7.00;;;5.95;;
34541;SDS011;20784;51.332;12.410;2023-04-15T02:32:45;6.40;;;5.57;;
34541;SDS011;20784;51.332;12.410;2023-04-15T02:35:11;6.90;;;5.68;;
34541;SDS011;20784;51.332;12.410;2023-04-15T02:37:37;6.85;;;5.70;;
34541;SDS011;20784;51.332;12.410;2023-04-15T02:40:07;6.45;;;5.50;;
34541;SDS011;20784;51.332;12.410;2023-04-15T02:42:39;8.93;;;6.13;;
34541;SDS011;20784;51.332;12.410;2023-04-15T02:45:08;5.78;;;5.18;;
34541;SDS011;20784;51.332;12.410;2023-04-15T02:47:34;6.40;;;5.47;;
34541;SDS011;20784;51.332;12.410;2023-04-15T02:50:01;5.88;;;5.05;;
34541;SDS011;20784;51.332;12.410;2023-04-15T02:52:28;5.47;;;4.95;;
34541;SDS011;20784;51.332;12.410;2023-04-15T02:54:54;5.43;;;4.72;;
34541;SDS011;20784;51.332;12.410;2023-04-15T02:57:24;5.55;;;5.00;;
34541;SDS011;20784;51.332;12.410;2023-04-15T02:59:53;4.88;;;4.38;;
34541;SDS011;20784;51.332;12.410;2023-04-15T03:02:19;4.80;;;4.30;;
34541;SDS011;20784;51.332;12.410;2023-04-15T03:04:45;4.60;;;4.13;;
34541;SDS011;20784;51.332;12.410;2023-04-15T03:07:13;5.38;;;4.57;;
34541;SDS011;20784;51.332;12.410;2023-04-15T03:09:38;5.00;;;4.50;;
34541;SDS011;20784;51.332;12.410;2023-04-15T03:12:05;5.80;;;4.97;;
34541;SDS011;20784;51.332;12.410;2023-04-15T03:14:31;5.63;;;4.80;;
34541;SDS011;20784;51.332;12.410;2023-04-15T03:16:56;5.40;;;4.80;;
34541;SDS011;20784;51.332;12.410;2023-04-15T03:19:23;6.00;;;5.05;;
34541;SDS011;20784;51.332;12.410;2023-04-15T03:21:49;5.80;;;5.20;;
34541;SDS011;20784;51.332;12.410;2023-04-15T03:24:16;5.88;;;5.25;;
34541;SDS011;20784;51.332;12.410;2023-04-15T03:26:42;6.97;;;5.38;;
34541;SDS011;20784;51.332;12.410;2023-04-15T03:29:08;6.10;;;5.50;;
34541;SDS011;20784;51.332;12.410;2023-04-15T03:31:41;6.47;;;5.60;;
34541;SDS011;20784;51.332;12.410;2023-04-15T03:34:09;6.63;;;5.88;;
34541;SDS011;20784;51.332;12.410;2023-04-15T03:36:35;10.07;;;6.20;;
34541;SDS011;20784;51.332;12.410;2023-04-15T03:39:01;6.97;;;6.25;;
34541;SDS011;20784;51.332;12.410;2023-04-15T03:41:28;7.70;;;6.90;;
34541;SDS011;20784;51.332;12.410;2023-04-15T03:43:53;7.95;;;7.13;;
34541;SDS011;20784;51.332;12.410;2023-04-15T03:46:19;8.35;;;7.20;;
34541;SDS011;20784;51.332;12.410;2023-04-15T03:48:47;8.02;;;7.22;;
34541;SDS011;20784;51.332;12.410;2023-04-15T03:51:15;8.18;;;7.25;;
34541;SDS011;20784;51.332;12.410;2023-04-15T03:53:41;12.65;;;8.32;;
34541;SDS011;20784;51.332;12.410;2023-04-15T03:56:09;9.02;;;7.47;;
34541;SDS011;20784;51.332;12.410;2023-04-15T03:58:35;8.65;;;7.65;;
34541;SDS011;20784;51.332;12.410;2023-04-15T04:01:04;9.73;;;8.02;;
34541;SDS011;20784;51.332;12.410;2023-04-15T04:03:39;9.35;;;8.05;;
34541;SDS011;20784;51.332;12.410;2023-04-15T04:06:05;10.07;;;7.55;;
34541;SDS011;20784;51.332;12.410;2023-04-15T04:08:32;8.80;;;7.38;;
34541;SDS011;20784;51.332;12.410;2023-04-15T04:10:57;10.35;;;7.85;;
34541;SDS011;20784;51.332;12.410;2023-04-15T04:13:23;9.43;;;7.88;;
34541;SDS011;20784;51.332;12.410;2023-04-15T04:15:49;9.73;;;7.55;;
34541;SDS011;20784;51.332;12.410;2023-04-15T04:18:15;8.63;;;7.25;;
34541;SDS011;20784;51.332;12.410;2023-04-15T04:20:40;8.40;;;7.25;;
34541;SDS011;20784;51.332;12.410;2023-04-15T04:23:06;8.75;;;7.60;;
34541;SDS011;20784;51.332;12.410;2023-04-15T04:25:32;11.40;;;7.15;;
34541;SDS011;20784;51.332;12.410;2023-04-15T04:27:58;9.35;;;7.28;;
34541;SDS011;20784;51.332;12.410;2023-04-15T04:30:24;9.77;;;8.13;;
34541;SDS011;20784;51.332;12.410;2023-04-15T04:32:49;9.60;;;7.82;;
34541;SDS011;20784;51.332;12.410;2023-04-15T04:35:15;9.13;;;8.02;;
34541;SDS011;20784;51.332;12.410;2023-04-15T04:37:41;9.48;;;7.68;;
34541;SDS011;20784;51.332;12.410;2023-04-15T04:40:07;9.10;;;7.60;;
34541;SDS011;20784;51.332;12.410;2023-04-15T04:42:33;9.45;;;7.80;;
34541;SDS011;20784;51.332;12.410;2023-04-15T04:44:59;8.50;;;7.20;;
34541;SDS011;20784;51.332;12.410;2023-04-15T04:47:25;8.63;;;7.00;;
34541;SDS011;20784;51.332;12.410;2023-04-15T04:49:50;8.45;;;7.10;;
34541;SDS011;20784;51.332;12.410;2023-04-15T04:52:16;9.68;;;7.93;;
34541;SDS011;20784;51.332;12.410;2023-04-15T04:54:42;8.13;;;7.20;;
34541;SDS011;20784;51.332;12.410;2023-04-15T04:57:08;8.02;;;6.75;;
34541;SDS011;20784;51.332;12.410;2023-04-15T04:59:36;8.73;;;7.50;;
34541;SDS011;20784;51.332;12.410;2023-04-15T05:02:11;8.40;;;7.25;;
34541;SDS011;20784;51.332;12.410;2023-04-15T05:04:36;9.40;;;8.10;;
34541;SDS011;20784;51.332;12.410;2023-04-15T05:07:02;8.55;;;7.65;;
34541;SDS011;20784;51.332;12.410;2023-04-15T05:09:31;9.07;;;8.07;;
34541;SDS011;20784;51.332;12.410;2023-04-15T05:12:00;9.32;;;8.25;;
34541;SDS011;20784;51.332;12.410;2023-04-15T05:14:25;9.10;;;7.85;;
34541;SDS011;20784;51.332;12.410;2023-04-15T05:16:54;10.07;;;8.30;;
34541;SDS011;20784;51.332;12.410;2023-04-15T05:19:23;10.82;;;8.48;;
34541;SDS011;20784;51.332;12.410;2023-04-15T05:21:54;8.55;;;7.47;;
34541;SDS011;20784;51.332;12.410;2023-04-15T05:24:20;8.45;;;7.55;;
34541;SDS011;20784;51.332;12.410;2023-04-15T05:26:46;9.27;;;7.70;;
34541;SDS011;20784;51.332;12.410;2023-04-15T05:29:21;8.75;;;7.72;;
34541;SDS011;20784;51.332;12.410;2023-04-15T05:31:46;10.63;;;8.77;;
34541;SDS011;20784;51.332;12.410;2023-04-15T05:34:12;11.80;;;9.32;;
34541;SDS011;20784;51.332;12.410;2023-04-15T05:36:41;8.82;;;7.75;;
34541;SDS011;20784;51.332;12.410;2023-04-15T05:39:20;9.13;;;8.18;;
34541;SDS011;20784;51.332;12.410;2023-04-15T05:41:46;9.38;;;7.97;;
34541;SDS011;20784;51.332;12.410;2023-04-15T05:44:14;8.70;;;7.32;;
34541;SDS011;20784;51.332;12.410;2023-04-15T05:46:39;9.05;;;7.88;;
34541;SDS011;20784;51.332;12.410;2023-04-15T05:49:05;8.05;;;7.03;;
34541;SDS011;20784;51.332;12.410;2023-04-15T05:51:31;8.05;;;6.97;;
34541;SDS011;20784;51.332;12.410;2023-04-15T05:53:57;8.38;;;7.05;;
34541;SDS011;20784;51.332;12.410;2023-04-15T05:56:23;8.18;;;7.18;;
34541;SDS011;20784;51.332;12.410;2023-04-15T05:58:50;10.25;;;7.45;;
34541;SDS011;20784;51.332;12.410;2023-04-15T06:01:16;7.97;;;6.88;;
34541;SDS011;20784;51.332;12.410;2023-04-15T06:03:42;7.72;;;6.68;;
34541;SDS011;20784;51.332;12.410;2023-04-15T06:06:10;9.57;;;7.15;;
34541;SDS011;20784;51.332;12.410;2023-04-15T06:08:36;9.02;;;6.13;;
34541;SDS011;20784;51.332;12.410;2023-04-15T06:11:02;7.50;;;6.43;;
34541;SDS011;20784;51.332;12.410;2023-04-15T06:13:28;6.70;;;6.00;;
34541;SDS011;20784;51.332;12.410;2023-04-15T06:15:53;8.55;;;6.80;;
34541;SDS011;20784;51.332;12.410;2023-04-15T06:18:19;13.00;;;9.32;;
34541;SDS011;20784;51.332;12.410;2023-04-15T06:20:45;34.97;;;23.90;;
34541;SDS011;20784;51.332;12.410;2023-04-15T06:23:13;14.70;;;10.40;;
34541;SDS011;20784;51.332;12.410;2023-04-15T06:25:39;8.70;;;7.18;;
34541;SDS011;20784;51.332;12.410;2023-04-15T06:28:05;7.22;;;5.75;;
34541;SDS011;20784;51.332;12.410;2023-04-15T06:30:30;9.02;;;6.80;;
34541;SDS011;20784;51.332;12.410;2023-04-15T06:32:56;6.90;;;5.80;;
34541;SDS011;20784;51.332;12.410;2023-04-15T06:35:22;6.75;;;5.53;;
34541;SDS011;20784;51.332;12.410;2023-04-15T06:37:47;6.57;;;5.78;;
34541;SDS011;20784;51.332;12.410;2023-04-15T06:40:13;6.90;;;5.75;;
34541;SDS011;20784;51.332;12.410;2023-04-15T06:42:38;6.38;;;5.57;;
34541;SDS011;20784;51.332;12.410;2023-04-15T06:45:04;7.43;;;5.68;;
34541;SDS011;20784;51.332;12.410;2023-04-15T06:47:30;7.10;;;5.80;;
34541;SDS011;20784;51.332;12.410;2023-04-15T06:49:56;7.35;;;5.93;;
34541;SDS011;20784;51.332;12.410;2023-04-15T06:52:24;8.88;;;6.22;;
34541;SDS011;20784;51.332;12.410;2023-04-15T06:54:50;7.70;;;6.32;;
34541;SDS011;20784;51.332;12.410;2023-04-15T06:57:15;8.93;;;6.90;;
34541;SDS011;20784;51.332;12.410;2023-04-15T06:59:41;8.68;;;6.70;;
34541;SDS011;20784;51.332;12.410;2023-04-15T07:02:07;8.93;;;7.05;;
34541;SDS011;20784;51.332;12.410;2023-04-15T07:04:34;10.23;;;6.93;;
34541;SDS011;20784;51.332;12.410;2023-04-15T07:07:00;8.63;;;6.85;;
34541;SDS011;20784;51.332;12.410;2023-04-15T07:09:31;11.63;;;7.28;;
34541;SDS011;20784;51.332;12.410;2023-04-15T07:11:58;9.15;;;7.72;;
34541;SDS011;20784;51.332;12.410;2023-04-15T07:14:24;10.15;;;7.90;;
34541;SDS011;20784;51.332;12.410;2023-04-15T07:16:49;8.73;;;7.70;;
34541;SDS011;20784;51.332;12.410;2023-04-15T07:19:15;10.48;;;7.90;;
34541;SDS011;20784;51.332;12.410;2023-04-15T07:21:41;11.32;;;7.80;;
34541;SDS011;20784;51.332;12.410;2023-04-15T07:24:06;8.50;;;7.40;;
34541;SDS011;20784;51.332;12.410;2023-04-15T07:26:36;9.98;;;7.65;;
34541;SDS011;20784;51.332;12.410;2023-04-15T07:29:02;11.95;;;8.45;;
34541;SDS011;20784;51.332;12.410;2023-04-15T07:31:28;10.63;;;8.35;;
34541;SDS011;20784;51.332;12.410;2023-04-15T07:33:53;11.43;;;8.82;;
34541;SDS011;20784;51.332;12.410;2023-04-15T07:36:19;13.05;;;9.05;;
34541;SDS011;20784;51.332;12.410;2023-04-15T07:38:44;10.38;;;8.88;;
34541;SDS011;20784;51.332;12.410;2023-04-15T07:41:10;11.60;;;9.30;;
34541;SDS011;20784;51.332;12.410;2023-04-15T07:43:36;12.35;;;9.45;;
34541;SDS011;20784;51.332;12.410;2023-04-15T07:46:04;11.15;;;9.32;;
34541;SDS011;20784;51.332;12.410;2023-04-15T07:48:30;14.50;;;8.63;;
34541;SDS011;20784;51.332;12.410;2023-04-15T07:50:59;10.55;;;8.73;;
34541;SDS011;20784;51.332;12.410;2023-04-15T07:53:25;11.05;;;8.93;;
34541;SDS011;20784;51.332;12.410;2023-04-15T07:55:51;14.05;;;8.60;;
34541;SDS011;20784;51.332;12.410;2023-04-15T07:58:16;11.63;;;9.00;;
34541;SDS011;20784;51.332;12.410;2023-04-15T08:00:42;13.55;;;9.80;;
34541;SDS011;20784;51.332;12.410;2023-04-15T08:03:10;12.77;;;9.82;;
34541;SDS011;20784;51.332;12.410;2023-04-15T08:05:36;16.30;;;9.70;;
34541;SDS011;20784;51.332;12.410;2023-04-15T08:08:02;13.82;;;10.13;;
34541;SDS011;20784;51.332;12.410;2023-04-15T08:10:28;12.57;;;9.85;;
34541;SDS011;20784;51.332;12.410;2023-04-15T08:12:54;15.70;;;9.93;;
34541;SDS011;20784;51.332;12.410;2023-04-15T08:15:20;14.20;;;10.45;;
34541;SDS011;20784;51.332;12.410;2023-04-15T08:17:46;10.68;;;8.82;;
34541;SDS011;20784;51.332;12.410;2023-04-15T08:20:12;12.50;;;9.77;;
34541;SDS011;20784;51.332;12.410;2023-04-15T08:22:38;13.68;;;9.63;;
34541;SDS011;20784;51.332;12.410;2023-04-15T08:25:04;13.10;;;10.23;;
34541;SDS011;20784;51.332;12.410;2023-04-15T08:27:30;13.35;;;9.90;;
34541;SDS011;20784;51.332;12.410;2023-04-15T08:29:58;15.15;;;10.43;;
34541;SDS011;20784;51.332;12.410;2023-04-15T08:32:24;13.90;;;10.00;;
34541;SDS011;20784;51.332;12.410;2023-04-15T08:34:58;16.45;;;9.93;;
34541;SDS011;20784;51.332;12.410;2023-04-15T08:37:27;12.75;;;9.40;;
34541;SDS011;20784;51.332;12.410;2023-04-15T08:39:56;12.00;;;9.70;;
34541;SDS011;20784;51.332;12.410;2023-04-15T08:42:29;12.45;;;9.45;;
34541;SDS011;20784;51.332;12.410;2023-04-15T08:45:01;13.80;;;10.45;;
34541;SDS011;20784;51.332;12.410;2023-04-15T08:47:29;13.27;;;10.55;;
34541;SDS011;20784;51.332;12.410;2023-04-15T08:49:56;13.88;;;10.55;;
34541;SDS011;20784;51.332;12.410;2023-04-15T08:52:27;13.10;;;10.23;;
34541;SDS011;20784;51.332;12.410;2023-04-15T08:54:56;12.63;;;10.40;;
34541;SDS011;20784;51.332;12.410;2023-04-15T08:57:25;16.98;;;11.70;;
34541;SDS011;20784;51.332;12.410;2023-04-15T08:59:52;14.05;;;10.82;;
34541;SDS011;20784;51.332;12.410;2023-04-15T09:02:21;15.35;;;11.18;;
34541;SDS011;20784;51.332;12.410;2023-04-15T09:04:48;15.52;;;11.65;;
34541;SDS011;20784;51.332;12.410;2023-04-15T09:07:14;16.25;;;12.25;;
34541;SDS011;20784;51.332;12.410;2023-04-15T09:09:42;13.93;;;10.57;;
34541;SDS011;20784;51.332;12.410;2023-04-15T09:12:08;15.75;;;11.60;;
34541;SDS011;20784;51.332;12.410;2023-04-15T09:14:35;15.48;;;11.23;;
34541;SDS011;20784;51.332;12.410;2023-04-15T09:17:03;17.33;;;12.30;;
34541;SDS011;20784;51.332;12.410;2023-04-15T09:19:29;14.68;;;11.73;;
34541;SDS011;20784;51.332;12.410;2023-04-15T09:22:00;15.10;;;11.50;;
34541;SDS011;20784;51.332;12.410;2023-04-15T09:24:34;15.98;;;11.65;;
34541;SDS011;20784;51.332;12.410;2023-04-15T09:27:05;16.45;;;12.32;;
34541;SDS011;20784;51.332;12.410;2023-04-15T09:29:34;18.80;;;12.27;;
34541;SDS011;20784;51.332;12.410;2023-04-15T09:32:10;16.88;;;13.38;;
34541;SDS011;20784;51.332;12.410;2023-04-15T09:34:38;18.80;;;13.90;;
34541;SDS011;20784;51.332;12.410;2023-04-15T09:37:03;21.20;;;15.02;;
34541;SDS011;20784;51.332;12.410;2023-04-15T09:39:48;17.80;;;13.95;;
34541;SDS011;20784;51.332;12.410;2023-04-15T09:42:15;20.25;;;14.38;;
34541;SDS011;20784;51.332;12.410;2023-04-15T09:44:44;20.58;;;14.32;;
34541;SDS011;20784;51.332;12.410;2023-04-15T09:47:17;18.65;;;14.75;;
34541;SDS011;20784;51.332;12.410;2023-04-15T09:49:55;19.15;;;15.27;;
34541;SDS011;20784;51.332;12.410;2023-04-15T09:52:21;21.27;;;15.52;;
34541;SDS011;20784;51.332;12.410;2023-04-15T09:54:47;20.08;;;14.73;;
34541;SDS011;20784;51.332;12.410;2023-04-15T09:57:17;19.85;;;15.07;;
34541;SDS011;20784;51.332;12.410;2023-04-15T09:59:42;21.80;;;16.00;;
34541;SDS011;20784;51.332;12.410;2023-04-15T10:02:08;21.35;;;16.08;;
34541;SDS011;20784;51.332;12.410;2023-04-15T10:04:43;20.00;;;15.77;;
34541;SDS011;20784;51.332;12.410;2023-04-15T10:07:10;21.67;;;15.15;;
34541;SDS011;20784;51.332;12.410;2023-04-15T10:09:48;20.63;;;15.80;;
34541;SDS011;20784;51.332;12.410;2023-04-15T10:12:17;21.00;;;15.82;;
34541;SDS011;20784;51.332;12.410;2023-04-15T10:18:05;26.67;;;17.83;;
34541;SDS011;20784;51.332;12.410;2023-04-15T10:20:34;24.55;;;18.15;;
34541;SDS011;20784;51.332;12.410;2023-04-15T10:23:00;23.08;;;17.20;;
34541;SDS011;20784;51.332;12.410;2023-04-15T10:25:26;24.25;;;18.02;;
34541;SDS011;20784;51.332;12.410;2023-04-15T10:30:12;24.00;;;17.55;;
34541;SDS011;20784;51.332;12.410;2023-04-15T10:32:40;24.30;;;18.75;;
34541;SDS011;20784;51.332;12.410;2023-04-15T10:35:06;24.33;;;19.38;;
34541;SDS011;20784;51.332;12.410;2023-04-15T10:37:39;26.50;;;19.38;;
34541;SDS011;20784;51.332;12.410;2023-04-15T10:43:00;23.77;;;18.58;;
34541;SDS011;20784;51.332;12.410;2023-04-15T10:45:33;24.98;;;19.05;;
34541;SDS011;20784;51.332;12.410;2023-04-15T10:51:26;29.48;;;20.40;;
34541;SDS011;20784;51.332;12.410;2023-04-15T10:53:57;26.20;;;19.65;;
34541;SDS011;20784;51.332;12.410;2023-04-15T10:56:29;24.70;;;18.10;;
34541;SDS011;20784;51.332;12.410;2023-04-15T10:58:57;24.45;;;18.40;;
34541;SDS011;20784;51.332;12.410;2023-04-15T11:01:45;26.67;;;18.58;;
34541;SDS011;20784;51.332;12.410;2023-04-15T11:07:35;24.10;;;18.02;;
34541;SDS011;20784;51.332;12.410;2023-04-15T11:10:48;24.33;;;17.75;;
34541;SDS011;20784;51.332;12.410;2023-04-15T11:18:42;21.30;;;16.60;;
34541;SDS011;20784;51.332;12.410;2023-04-15T11:21:02;26.38;;;18.13;;
34541;SDS011;20784;51.332;12.410;2023-04-15T11:23:37;25.20;;;17.60;;
34541;SDS011;20784;51.332;12.410;2023-04-15T11:28:38;21.40;;;16.17;;
34541;SDS011;20784;51.332;12.410;2023-04-15T11:31:14;21.88;;;17.48;;
34541;SDS011;20784;51.332;12.410;2023-04-15T11:33:45;21.02;;;15.80;;
34541;SDS011;20784;51.332;12.410;2023-04-15T11:36:23;21.30;;;16.83;;
34541;SDS011;20784;51.332;12.410;2023-04-15T11:38:51;20.67;;;16.10;;
34541;SDS011;20784;51.332;12.410;2023-04-15T11:41:19;20.73;;;16.38;;
34541;SDS011;20784;51.332;12.410;2023-04-15T11:43:48;19.30;;;16.30;;
34541;SDS011;20784;51.332;12.410;2023-04-15T11:46:15;21.88;;;16.35;;
34541;SDS011;20784;51.332;12.410;2023-04-15T11:48:44;23.58;;;15.88;;
34541;SDS011;20784;51.332;12.410;2023-04-15T11:51:13;20.83;;;15.07;;
34541;SDS011;20784;51.332;12.410;2023-04-15T11:56:10;23.63;;;14.20;;
34541;SDS011;20784;51.332;12.410;2023-04-15T11:58:42;18.40;;;12.88;;
34541;SDS011;20784;51.332;12.410;2023-04-15T12:01:10;16.30;;;12.35;;
34541;SDS011;20784;51.332;12.410;2023-04-15T12:11:13;16.77;;;12.82;;
34541;SDS011;20784;51.332;12.410;2023-04-15T12:13:46;16.25;;;11.80;;
34541;SDS011;20784;51.332;12.410;2023-04-15T12:16:19;14.50;;;11.93;;
34541;SDS011;20784;51.332;12.410;2023-04-15T12:18:45;12.88;;;9.48;;
34541;SDS011;20784;51.332;12.410;2023-04-15T12:21:12;11.68;;;10.07;;
34541;SDS011;20784;51.332;12.410;2023-04-15T12:26:26;12.80;;;9.13;;
34541;SDS011;20784;51.332;12.410;2023-04-15T12:29:00;12.65;;;9.05;;
34541;SDS011;20784;51.332;12.410;2023-04-15T12:31:27;11.15;;;9.18;;
34541;SDS011;20784;51.332;12.410;2023-04-15T12:33:56;11.43;;;9.27;;
34541;SDS011;20784;51.332;12.410;2023-04-15T12:36:25;10.63;;;8.60;;
34541;SDS011;20784;51.332;12.410;2023-04-15T12:38:52;12.00;;;9.05;;
34541;SDS011;20784;51.332;12.410;2023-04-15T12:41:18;13.95;;;9.25;;
34541;SDS011;20784;51.332;12.410;2023-04-15T12:43:45;9.63;;;8.25;;
34541;SDS011;20784;51.332;12.410;2023-04-15T12:46:11;9.98;;;8.38;;
34541;SDS011;20784;51.332;12.410;2023-04-15T12:48:37;9.40;;;8.02;;
34541;SDS011;20784;51.332;12.410;2023-04-15T12:51:04;10.95;;;8.10;;
34541;SDS011;20784;51.332;12.410;2023-04-15T12:53:30;8.60;;;7.32;;
34541;SDS011;20784;51.332;12.410;2023-04-15T12:55:55;9.18;;;7.32;;
34541;SDS011;20784;51.332;12.410;2023-04-15T12:58:21;9.55;;;7.30;;
34541;SDS011;20784;51.332;12.410;2023-04-15T13:00:49;9.93;;;7.32;;
34541;SDS011;20784;51.332;12.410;2023-04-15T13:03:15;7.82;;;6.70;;
34541;SDS011;20784;51.332;12.410;2023-04-15T13:05:41;8.10;;;7.22;;
34541;SDS011;20784;51.332;12.410;2023-04-15T13:08:07;8.93;;;6.97;;
34541;SDS011;20784;51.332;12.410;2023-04-15T13:10:35;9.25;;;6.85;;
34541;SDS011;20784;51.332;12.410;2023-04-15T13:13:02;7.20;;;6.40;;
34541;SDS011;20784;51.332;12.410;2023-04-15T13:15:28;6.97;;;6.28;;
34541;SDS011;20784;51.332;12.410;2023-04-15T13:17:53;7.65;;;6.85;;
34541;SDS011;20784;51.332;12.410;2023-04-15T13:20:19;17.58;;;12.80;;
34541;SDS011;20784;51.332;12.410;2023-04-15T13:22:45;9.88;;;7.97;;
34541;SDS011;20784;51.332;12.410;2023-04-15T13:25:10;7.93;;;6.65;;
34541;SDS011;20784;51.332;12.410;2023-04-15T13:27:36;9.23;;;7.47;;
34541;SDS011;20784;51.332;12.410;2023-04-15T13:30:02;8.27;;;6.20;;
34541;SDS011;20784;51.332;12.410;2023-04-15T13:32:29;6.95;;;6.15;;
34541;SDS011;20784;51.332;12.410;2023-04-15T13:34:55;8.18;;;6.40;;
34541;SDS011;20784;51.332;12.410;2023-04-15T13:37:24;5.90;;;5.22;;
34541;SDS011;20784;51.332;12.410;2023-04-15T13:39:51;7.85;;;6.00;;
34541;SDS011;20784;51.332;12.410;2023-04-15T13:42:16;7.60;;;6.03;;
34541;SDS011;20784;51.332;12.410;2023-04-15T13:44:42;5.82;;;5.22;;
34541;SDS011;20784;51.332;12.410;2023-04-15T13:47:11;6.78;;;6.03;;
34541;SDS011;20784;51.332;12.410;2023-04-15T13:49:41;6.65;;;5.75;;
34541;SDS011;20784;51.332;12.410;2023-04-15T13:52:06;7.55;;;6.22;;
34541;SDS011;20784;51.332;12.410;2023-04-15T13:54:32;8.02;;;6.07;;
34541;SDS011;20784;51.332;12.410;2023-04-15T13:56:58;7.10;;;5.35;;
34541;SDS011;20784;51.332;12.410;2023-04-15T13:59:23;8.93;;;6.65;;
34541;SDS011;20784;51.332;12.410;2023-04-15T14:01:54;6.95;;;5.47;;
34541;SDS011;20784;51.332;12.410;2023-04-15T14:04:20;6.25;;;5.57;;
34541;SDS011;20784;51.332;12.410;2023-04-15T14:06:49;6.28;;;5.55;;
34541;SDS011;20784;51.332;12.410;2023-04-15T14:09:15;7.03;;;5.70;;
34541;SDS011;20784;51.332;12.410;2023-04-15T14:11:46;8.53;;;7.17;;
34541;SDS011;20784;51.332;12.410;2023-04-15T14:14:11;6.93;;;5.80;;
34541;SDS011;20784;51.332;12.410;2023-04-15T14:16:37;8.30;;;6.15;;
34541;SDS011;20784;51.332;12.410;2023-04-15T14:19:03;6.18;;;5.57;;
34541;SDS011;20784;51.332;12.410;2023-04-15T14:21:28;6.88;;;5.82;;
34541;SDS011;20784;51.332;12.410;2023-04-15T14:23:56;8.48;;;5.35;;
34541;SDS011;20784;51.332;12.410;2023-04-15T14:26:23;6.47;;;5.57;;
34541;SDS011;20784;51.332;12.410;2023-04-15T14:28:55;6.65;;;5.97;;
34541;SDS011;20784;51.332;12.410;2023-04-15T14:33:46;7.95;;;6.38;;
34541;SDS011;20784;51.332;12.410;2023-04-15T14:36:21;9.88;;;6.60;;
34541;SDS011;20784;51.332;12.410;2023-04-15T14:38:47;9.02;;;6.72;;
34541;SDS011;20784;51.332;12.410;2023-04-15T14:41:16;8.02;;;6.78;;
34541;SDS011;20784;51.332;12.410;2023-04-15T14:43:42;6.32;;;5.63;;
34541;SDS011;20784;51.332;12.410;2023-04-15T14:46:10;6.93;;;6.20;;
34541;SDS011;20784;51.332;12.410;2023-04-15T14:48:36;8.20;;;6.30;;
34541;SDS011;20784;51.332;12.410;2023-04-15T14:51:01;7.60;;;5.75;;
34541;SDS011;20784;51.332;12.410;2023-04-15T14:53:27;7.35;;;6.32;;
34541;SDS011;20784;51.332;12.410;2023-04-15T14:55:53;7.25;;;6.45;;
34541;SDS011;20784;51.332;12.410;2023-04-15T14:58:18;6.50;;;5.90;;
34541;SDS011;20784;51.332;12.410;2023-04-15T15:00:44;7.07;;;6.13;;
34541;SDS011;20784;51.332;12.410;2023-04-15T15:03:10;7.18;;;6.10;;
34541;SDS011;20784;51.332;12.410;2023-04-15T15:05:39;9.27;;;5.82;;
34541;SDS011;20784;51.332;12.410;2023-04-15T15:08:07;9.30;;;6.05;;